MXA1923 MMPQ-MMSM
Flight info
| Callsign | MXA1923 |
|---|---|
| Flight time | 1h 26m |
| Altitude | 34000 |
| Route | MMPQ/28 N0383F180 PQE2B PQE DCT VIDBA V51 VSA/N0463F340 UJ5 PBC PBC2C MMSM/04C |
| Aircraft | E295/M-VGDW/C |
Departure
| Time | 2026-05-04 02:35 |
|---|---|
| Airport | Palenque International Airport (MMPQ) |
Arrival
| Time | 2026-05-04 04:02 |
|---|---|
| Airport | Felipe Ángeles International Airport (MMSM) |
| Time | Latitude | Longitude | Altitude | Speed | Heading |
|---|---|---|---|---|---|
| 2026-05-04 02:25 | 17.53616 | -92.01607 | 183 ft | 0 kts | 15° |
| 2026-05-04 02:27 | 17.53618 | -92.01605 | 183 ft | 0 kts | 42° |
| 2026-05-04 02:27 | 17.53619 | -92.01601 | 183 ft | 0 kts | 82° |
| 2026-05-04 02:27 | 17.53617 | -92.01597 | 183 ft | 0 kts | 136° |
| 2026-05-04 02:27 | 17.53610 | -92.01597 | 183 ft | 1 kts | 207° |
| 2026-05-04 02:28 | 17.53597 | -92.01606 | 183 ft | 3 kts | 213° |
| 2026-05-04 02:28 | 17.53567 | -92.01627 | 182 ft | 6 kts | 213° |
| 2026-05-04 02:28 | 17.53513 | -92.01653 | 180 ft | 10 kts | 201° |
| 2026-05-04 02:28 | 17.53439 | -92.01672 | 180 ft | 11 kts | 193° |
| 2026-05-04 02:29 | 17.53356 | -92.01681 | 180 ft | 12 kts | 158° |
| 2026-05-04 02:29 | 17.53315 | -92.01607 | 180 ft | 12 kts | 104° |
| 2026-05-04 02:29 | 17.53302 | -92.01556 | 181 ft | 12 kts | 104° |
| 2026-05-04 02:29 | 17.53291 | -92.01512 | 182 ft | 12 kts | 105° |
| 2026-05-04 02:30 | 17.53270 | -92.01430 | 184 ft | 10 kts | 105° |
| 2026-05-04 02:30 | 17.53252 | -92.01360 | 186 ft | 9 kts | 105° |
| 2026-05-04 02:30 | 17.53237 | -92.01304 | 188 ft | 7 kts | 105° |
| 2026-05-04 02:30 | 17.53225 | -92.01258 | 190 ft | 5 kts | 105° |
| 2026-05-04 02:31 | 17.53215 | -92.01221 | 191 ft | 5 kts | 105° |
| 2026-05-04 02:31 | 17.53206 | -92.01185 | 192 ft | 5 kts | 105° |
| 2026-05-04 02:31 | 17.53198 | -92.01154 | 192 ft | 5 kts | 105° |
| 2026-05-04 02:31 | 17.53188 | -92.01117 | 194 ft | 6 kts | 105° |
| 2026-05-04 02:32 | 17.53176 | -92.01067 | 196 ft | 8 kts | 104° |
| 2026-05-04 02:32 | 17.53160 | -92.01005 | 198 ft | 9 kts | 104° |
| 2026-05-04 02:32 | 17.53141 | -92.00926 | 199 ft | 12 kts | 104° |
| 2026-05-04 02:32 | 17.53114 | -92.00826 | 201 ft | 15 kts | 105° |
| 2026-05-04 02:33 | 17.53077 | -92.00678 | 203 ft | 32 kts | 104° |
| 2026-05-04 02:33 | 17.53056 | -92.00485 | 203 ft | 22 kts | 65° |
| 2026-05-04 02:33 | 17.53022 | -92.00443 | 203 ft | 8 kts | 245° |
| 2026-05-04 02:33 | 17.53025 | -92.00486 | 203 ft | 3 kts | 284° |
| 2026-05-04 02:34 | 17.53025 | -92.00487 | 203 ft | 0 kts | 284° |
| 2026-05-04 02:35 | 17.53044 | -92.00559 | 203 ft | 43 kts | 285° |
| 2026-05-04 02:35 | 17.53205 | -92.01186 | 192 ft | 130 kts | 285° |
| 2026-05-04 02:35 | 17.53476 | -92.02265 | 578 ft | 160 kts | 285° |
| 2026-05-04 02:35 | 17.53740 | -92.03426 | 1235 ft | 180 kts | 284° |
| 2026-05-04 02:36 | 17.54045 | -92.04750 | 1659 ft | 205 kts | 290° |
| 2026-05-04 02:36 | 17.54471 | -92.06191 | 2716 ft | 208 kts | 287° |
| 2026-05-04 02:36 | 17.54855 | -92.07645 | 3684 ft | 215 kts | 287° |
| 2026-05-04 02:36 | 17.55253 | -92.09170 | 4599 ft | 225 kts | 287° |
| 2026-05-04 02:37 | 17.55665 | -92.10789 | 5636 ft | 229 kts | 286° |
| 2026-05-04 02:37 | 17.56088 | -92.12439 | 6496 ft | 240 kts | 285° |
| 2026-05-04 02:37 | 17.56538 | -92.14198 | 7011 ft | 269 kts | 286° |
| 2026-05-04 02:37 | 17.57050 | -92.16125 | 7790 ft | 284 kts | 294° |
| 2026-05-04 02:38 | 17.58256 | -92.17734 | 8682 ft | 289 kts | 328° |
| 2026-05-04 02:38 | 17.60147 | -92.18364 | 9642 ft | 290 kts | 1° |
| 2026-05-04 02:38 | 17.62058 | -92.17818 | 10607 ft | 291 kts | 33° |
| 2026-05-04 02:38 | 17.63417 | -92.16272 | 11496 ft | 298 kts | 64° |
| 2026-05-04 02:39 | 17.63811 | -92.14120 | 12327 ft | 308 kts | 95° |
| 2026-05-04 02:39 | 17.63049 | -92.11966 | 13171 ft | 316 kts | 126° |
| 2026-05-04 02:39 | 17.61457 | -92.10296 | 14086 ft | 320 kts | 137° |
| 2026-05-04 02:39 | 17.59806 | -92.08726 | 14946 ft | 324 kts | 138° |
| 2026-05-04 02:40 | 17.57894 | -92.07461 | 15671 ft | 331 kts | 162° |
| 2026-05-04 02:40 | 17.55537 | -92.07208 | 15992 ft | 352 kts | 188° |
| 2026-05-04 02:40 | 17.53251 | -92.08173 | 16546 ft | 361 kts | 217° |
| 2026-05-04 02:40 | 17.51612 | -92.10123 | 17275 ft | 365 kts | 243° |
| 2026-05-04 02:41 | 17.50931 | -92.12689 | 17965 ft | 367 kts | 270° |
| 2026-05-04 02:41 | 17.51400 | -92.15266 | 18730 ft | 365 kts | 296° |
| 2026-05-04 02:41 | 17.52883 | -92.17355 | 19464 ft | 363 kts | 321° |
| 2026-05-04 02:41 | 17.55031 | -92.18720 | 20276 ft | 361 kts | 333° |
| 2026-05-04 02:42 | 17.57253 | -92.19959 | 20993 ft | 364 kts | 332° |
| 2026-05-04 02:42 | 17.59502 | -92.21223 | 21686 ft | 363 kts | 333° |
| 2026-05-04 02:42 | 17.61658 | -92.22432 | 22309 ft | 351 kts | 333° |
| 2026-05-04 02:42 | 17.63806 | -92.23637 | 22898 ft | 346 kts | 332° |
| 2026-05-04 02:43 | 17.65917 | -92.24855 | 23313 ft | 346 kts | 327° |
| 2026-05-04 02:43 | 17.67565 | -92.26677 | 23736 ft | 345 kts | 303° |
| 2026-05-04 02:43 | 17.68813 | -92.28793 | 24293 ft | 339 kts | 305° |
| 2026-05-04 02:43 | 17.70062 | -92.30875 | 24703 ft | 338 kts | 303° |
| 2026-05-04 02:44 | 17.71309 | -92.32989 | 24915 ft | 343 kts | 303° |
| 2026-05-04 02:44 | 17.72587 | -92.35165 | 24969 ft | 361 kts | 303° |
| 2026-05-04 02:44 | 17.73949 | -92.37479 | 25049 ft | 379 kts | 303° |
| 2026-05-04 02:44 | 17.75352 | -92.39868 | 25256 ft | 392 kts | 303° |
| 2026-05-04 02:45 | 17.76803 | -92.42338 | 25806 ft | 396 kts | 303° |
| 2026-05-04 02:45 | 17.78253 | -92.44778 | 26317 ft | 400 kts | 305° |
| 2026-05-04 02:45 | 17.79911 | -92.47175 | 26778 ft | 406 kts | 301° |
| 2026-05-04 02:45 | 17.81228 | -92.49767 | 27325 ft | 408 kts | 301° |
| 2026-05-04 02:46 | 17.82705 | -92.52345 | 27826 ft | 411 kts | 302° |
| 2026-05-04 02:46 | 17.84171 | -92.54889 | 28349 ft | 413 kts | 302° |
| 2026-05-04 02:46 | 17.85690 | -92.57488 | 28723 ft | 419 kts | 302° |
| 2026-05-04 02:46 | 17.87222 | -92.60111 | 29129 ft | 422 kts | 302° |
| 2026-05-04 02:47 | 17.88761 | -92.62748 | 29542 ft | 424 kts | 302° |
| 2026-05-04 02:47 | 17.90312 | -92.65398 | 29891 ft | 427 kts | 301° |
| 2026-05-04 02:47 | 17.91863 | -92.68057 | 30179 ft | 429 kts | 301° |
| 2026-05-04 02:47 | 17.93422 | -92.70724 | 30412 ft | 432 kts | 301° |
| 2026-05-04 02:48 | 17.94999 | -92.73428 | 30646 ft | 433 kts | 301° |
| 2026-05-04 02:48 | 17.96582 | -92.76141 | 30849 ft | 434 kts | 301° |
| 2026-05-04 02:48 | 17.98160 | -92.78845 | 30977 ft | 436 kts | 301° |
| 2026-05-04 02:48 | 17.99587 | -92.81651 | 31025 ft | 437 kts | 289° |
| 2026-05-04 02:49 | 18.00104 | -92.84818 | 31045 ft | 439 kts | 273° |
| 2026-05-04 02:49 | 18.00273 | -92.87986 | 31228 ft | 438 kts | 275° |
| 2026-05-04 02:49 | 18.00688 | -92.94468 | 31364 ft | 442 kts | 274° |
| 2026-05-04 02:50 | 18.01088 | -93.00904 | 31533 ft | 442 kts | 274° |
| 2026-05-04 02:50 | 18.01493 | -93.07381 | 31609 ft | 443 kts | 274° |
| 2026-05-04 02:51 | 18.01891 | -93.13827 | 31722 ft | 442 kts | 275° |
| 2026-05-04 02:51 | 18.02291 | -93.20266 | 31772 ft | 443 kts | 275° |
| 2026-05-04 02:52 | 18.02772 | -93.26809 | 31817 ft | 442 kts | 281° |
| 2026-05-04 02:52 | 18.03116 | -93.33201 | 31851 ft | 441 kts | 274° |
| 2026-05-04 02:53 | 18.03479 | -93.39677 | 31877 ft | 443 kts | 275° |
| 2026-05-04 02:53 | 18.03873 | -93.46303 | 31913 ft | 443 kts | 275° |
| 2026-05-04 02:54 | 18.04260 | -93.52734 | 31931 ft | 443 kts | 275° |
| 2026-05-04 02:54 | 18.04643 | -93.59180 | 31932 ft | 444 kts | 275° |
| 2026-05-04 02:55 | 18.05227 | -93.68980 | 31965 ft | 444 kts | 275° |
| 2026-05-04 02:56 | 18.05606 | -93.75443 | 31975 ft | 444 kts | 275° |
| 2026-05-04 02:56 | 18.05988 | -93.81934 | 31992 ft | 443 kts | 275° |
| 2026-05-04 02:57 | 18.06364 | -93.88390 | 31996 ft | 443 kts | 275° |
| 2026-05-04 02:57 | 18.06733 | -93.94823 | 32001 ft | 444 kts | 275° |
| 2026-05-04 02:58 | 18.07109 | -94.01333 | 32014 ft | 444 kts | 275° |
| 2026-05-04 02:58 | 18.07478 | -94.07817 | 32013 ft | 444 kts | 275° |
| 2026-05-04 02:59 | 18.07845 | -94.14271 | 32024 ft | 444 kts | 275° |
| 2026-05-04 02:59 | 18.08215 | -94.20725 | 32054 ft | 443 kts | 275° |
| 2026-05-04 03:00 | 18.08577 | -94.27173 | 32090 ft | 443 kts | 275° |
| 2026-05-04 03:00 | 18.08932 | -94.33630 | 32097 ft | 442 kts | 275° |
| 2026-05-04 03:01 | 18.09292 | -94.40089 | 32106 ft | 442 kts | 275° |
| 2026-05-04 03:01 | 18.09647 | -94.46506 | 32130 ft | 441 kts | 275° |
| 2026-05-04 03:02 | 18.09999 | -94.52940 | 32136 ft | 442 kts | 275° |
| 2026-05-04 03:02 | 18.10577 | -94.59311 | 32119 ft | 438 kts | 287° |
| 2026-05-04 03:03 | 18.12377 | -94.65400 | 32193 ft | 436 kts | 288° |
| 2026-05-04 03:03 | 18.14156 | -94.71515 | 32230 ft | 436 kts | 288° |
| 2026-05-04 03:04 | 18.15927 | -94.77621 | 32234 ft | 436 kts | 288° |
| 2026-05-04 03:04 | 18.17686 | -94.83695 | 32261 ft | 436 kts | 288° |
| 2026-05-04 03:05 | 18.19445 | -94.89768 | 32302 ft | 435 kts | 288° |
| 2026-05-04 03:05 | 18.21197 | -94.95836 | 32339 ft | 434 kts | 288° |
| 2026-05-04 03:06 | 18.22951 | -95.01912 | 32363 ft | 433 kts | 288° |
| 2026-05-04 03:06 | 18.24712 | -95.08019 | 32378 ft | 434 kts | 288° |
| 2026-05-04 03:07 | 18.26457 | -95.14080 | 32384 ft | 434 kts | 288° |
| 2026-05-04 03:07 | 18.28196 | -95.20136 | 32388 ft | 435 kts | 288° |
| 2026-05-04 03:08 | 18.29951 | -95.26242 | 32391 ft | 435 kts | 288° |
| 2026-05-04 03:08 | 18.31704 | -95.32355 | 32393 ft | 435 kts | 288° |
| 2026-05-04 03:09 | 18.33595 | -95.38377 | 32373 ft | 435 kts | 284° |
| 2026-05-04 03:09 | 18.35190 | -95.44508 | 32414 ft | 434 kts | 288° |
| 2026-05-04 03:10 | 18.36909 | -95.50582 | 32426 ft | 434 kts | 288° |
| 2026-05-04 03:10 | 18.38646 | -95.56681 | 32423 ft | 435 kts | 288° |
| 2026-05-04 03:11 | 18.40381 | -95.62779 | 32425 ft | 435 kts | 288° |
| 2026-05-04 03:11 | 18.42112 | -95.68882 | 32434 ft | 436 kts | 288° |
| 2026-05-04 03:12 | 18.43847 | -95.74995 | 32438 ft | 436 kts | 288° |
| 2026-05-04 03:12 | 18.45577 | -95.81105 | 32445 ft | 436 kts | 288° |
| 2026-05-04 03:13 | 18.47306 | -95.87219 | 32453 ft | 436 kts | 288° |
| 2026-05-04 03:13 | 18.49159 | -95.93311 | 32440 ft | 434 kts | 294° |
| 2026-05-04 03:13 | 18.50045 | -95.96352 | 32444 ft | 434 kts | 283° |
| 2026-05-04 03:14 | 18.50781 | -95.99389 | 32481 ft | 433 kts | 288° |
| 2026-05-04 03:14 | 18.52471 | -96.05486 | 32475 ft | 434 kts | 288° |
| 2026-05-04 03:15 | 18.54194 | -96.11612 | 32472 ft | 435 kts | 288° |
| 2026-05-04 03:15 | 18.55909 | -96.17703 | 32468 ft | 436 kts | 288° |
| 2026-05-04 03:16 | 18.57634 | -96.23840 | 32478 ft | 436 kts | 288° |
| 2026-05-04 03:16 | 18.59345 | -96.29938 | 32471 ft | 436 kts | 288° |
| 2026-05-04 03:17 | 18.61067 | -96.36083 | 32473 ft | 436 kts | 288° |
| 2026-05-04 03:17 | 18.62784 | -96.42222 | 32469 ft | 436 kts | 288° |
| 2026-05-04 03:18 | 18.64500 | -96.48350 | 32465 ft | 435 kts | 288° |
| 2026-05-04 03:18 | 18.66207 | -96.54466 | 32466 ft | 435 kts | 288° |
| 2026-05-04 03:19 | 18.67915 | -96.60593 | 32456 ft | 435 kts | 288° |
| 2026-05-04 03:19 | 18.69616 | -96.66706 | 32451 ft | 436 kts | 288° |
| 2026-05-04 03:20 | 18.71326 | -96.72852 | 32472 ft | 435 kts | 287° |
| 2026-05-04 03:20 | 18.73029 | -96.78979 | 32473 ft | 436 kts | 287° |
| 2026-05-04 03:21 | 18.74731 | -96.85117 | 32511 ft | 435 kts | 287° |
| 2026-05-04 03:21 | 18.76421 | -96.91229 | 32535 ft | 434 kts | 287° |
| 2026-05-04 03:22 | 18.78114 | -96.97353 | 32537 ft | 434 kts | 287° |
| 2026-05-04 03:22 | 18.79796 | -97.03445 | 32577 ft | 434 kts | 287° |
| 2026-05-04 03:23 | 18.81484 | -97.09562 | 32567 ft | 435 kts | 287° |
| 2026-05-04 03:23 | 18.83167 | -97.15670 | 32578 ft | 436 kts | 287° |
| 2026-05-04 03:24 | 18.84857 | -97.21819 | 32624 ft | 435 kts | 287° |
| 2026-05-04 03:24 | 18.86549 | -97.27982 | 32634 ft | 435 kts | 287° |
| 2026-05-04 03:25 | 18.88227 | -97.34104 | 32647 ft | 435 kts | 287° |
| 2026-05-04 03:25 | 18.89907 | -97.40237 | 32662 ft | 435 kts | 287° |
| 2026-05-04 03:26 | 18.91580 | -97.46353 | 32666 ft | 435 kts | 287° |
| 2026-05-04 03:26 | 18.93256 | -97.52491 | 32680 ft | 435 kts | 287° |
| 2026-05-04 03:27 | 18.94936 | -97.58654 | 32676 ft | 436 kts | 287° |
| 2026-05-04 03:27 | 18.96605 | -97.64796 | 32689 ft | 436 kts | 287° |
| 2026-05-04 03:28 | 18.98286 | -97.70969 | 32732 ft | 435 kts | 286° |
| 2026-05-04 03:28 | 18.99945 | -97.77078 | 32734 ft | 435 kts | 287° |
| 2026-05-04 03:29 | 19.01622 | -97.83261 | 32611 ft | 435 kts | 286° |
| 2026-05-04 03:29 | 19.02451 | -97.86334 | 32329 ft | 435 kts | 287° |
| 2026-05-04 03:29 | 19.03284 | -97.89410 | 32088 ft | 434 kts | 287° |
| 2026-05-04 03:29 | 19.04106 | -97.92448 | 31978 ft | 433 kts | 287° |
| 2026-05-04 03:30 | 19.04935 | -97.95513 | 31845 ft | 432 kts | 287° |
| 2026-05-04 03:30 | 19.05755 | -97.98554 | 31716 ft | 432 kts | 287° |
| 2026-05-04 03:30 | 19.06584 | -98.01620 | 31586 ft | 431 kts | 287° |
| 2026-05-04 03:30 | 19.07401 | -98.04652 | 31456 ft | 432 kts | 287° |
| 2026-05-04 03:31 | 19.08231 | -98.07731 | 31323 ft | 432 kts | 287° |
| 2026-05-04 03:31 | 19.09047 | -98.10754 | 31194 ft | 431 kts | 287° |
| 2026-05-04 03:31 | 19.09879 | -98.13851 | 31063 ft | 429 kts | 287° |
| 2026-05-04 03:31 | 19.10694 | -98.16879 | 30939 ft | 429 kts | 288° |
| 2026-05-04 03:32 | 19.11505 | -98.19899 | 30814 ft | 429 kts | 287° |
| 2026-05-04 03:32 | 19.12314 | -98.22912 | 30696 ft | 428 kts | 288° |
| 2026-05-04 03:32 | 19.13135 | -98.25971 | 30570 ft | 428 kts | 288° |
| 2026-05-04 03:32 | 19.13953 | -98.29017 | 30468 ft | 427 kts | 288° |
| 2026-05-04 03:33 | 19.14749 | -98.31997 | 30470 ft | 424 kts | 288° |
| 2026-05-04 03:33 | 19.15952 | -98.34847 | 30404 ft | 420 kts | 307° |
| 2026-05-04 03:33 | 19.18081 | -98.36943 | 30513 ft | 415 kts | 328° |
| 2026-05-04 03:33 | 19.20763 | -98.38094 | 30462 ft | 418 kts | 347° |
| 2026-05-04 03:34 | 19.23615 | -98.38694 | 30535 ft | 419 kts | 346° |
| 2026-05-04 03:34 | 19.29362 | -98.40009 | 30488 ft | 419 kts | 347° |
| 2026-05-04 03:35 | 19.35090 | -98.41305 | 30496 ft | 418 kts | 347° |
| 2026-05-04 03:35 | 19.40806 | -98.42598 | 30514 ft | 418 kts | 347° |
| 2026-05-04 03:36 | 19.46527 | -98.43893 | 30297 ft | 418 kts | 347° |
| 2026-05-04 03:36 | 19.49365 | -98.44524 | 30042 ft | 415 kts | 348° |
| 2026-05-04 03:36 | 19.52218 | -98.44913 | 29793 ft | 412 kts | 353° |
| 2026-05-04 03:36 | 19.55097 | -98.45267 | 29542 ft | 409 kts | 352° |
| 2026-05-04 03:37 | 19.57913 | -98.45624 | 29289 ft | 406 kts | 352° |
| 2026-05-04 03:37 | 19.60721 | -98.45975 | 29037 ft | 402 kts | 352° |
| 2026-05-04 03:37 | 19.63487 | -98.46322 | 28789 ft | 400 kts | 352° |
| 2026-05-04 03:37 | 19.66269 | -98.46675 | 28532 ft | 399 kts | 352° |
| 2026-05-04 03:38 | 19.69040 | -98.47048 | 28271 ft | 397 kts | 351° |
| 2026-05-04 03:38 | 19.71759 | -98.47420 | 28021 ft | 396 kts | 352° |
| 2026-05-04 03:38 | 19.74512 | -98.47798 | 27766 ft | 395 kts | 351° |
| 2026-05-04 03:38 | 19.77257 | -98.48178 | 27512 ft | 394 kts | 352° |
| 2026-05-04 03:39 | 19.79949 | -98.48547 | 27256 ft | 391 kts | 351° |
| 2026-05-04 03:39 | 19.82644 | -98.48918 | 26998 ft | 390 kts | 351° |
| 2026-05-04 03:39 | 19.85325 | -98.49350 | 26745 ft | 389 kts | 350° |
| 2026-05-04 03:39 | 19.88004 | -98.49789 | 26485 ft | 387 kts | 350° |
| 2026-05-04 03:40 | 19.90673 | -98.50229 | 26227 ft | 387 kts | 350° |
| 2026-05-04 03:40 | 19.93323 | -98.50662 | 25973 ft | 386 kts | 351° |
| 2026-05-04 03:40 | 19.96075 | -98.51116 | 25709 ft | 384 kts | 350° |
| 2026-05-04 03:40 | 19.98757 | -98.51553 | 25442 ft | 382 kts | 350° |
| 2026-05-04 03:41 | 20.01384 | -98.51987 | 25188 ft | 382 kts | 351° |
| 2026-05-04 03:41 | 20.04006 | -98.52418 | 24929 ft | 382 kts | 351° |
| 2026-05-04 03:41 | 20.06648 | -98.52853 | 24669 ft | 379 kts | 350° |
| 2026-05-04 03:41 | 20.09162 | -98.53769 | 24289 ft | 379 kts | 329° |
| 2026-05-04 03:42 | 20.11056 | -98.55678 | 23902 ft | 380 kts | 306° |
| 2026-05-04 03:42 | 20.12222 | -98.58180 | 23605 ft | 382 kts | 296° |
| 2026-05-04 03:42 | 20.13373 | -98.60740 | 23258 ft | 382 kts | 298° |
| 2026-05-04 03:42 | 20.14523 | -98.63281 | 22894 ft | 380 kts | 298° |
| 2026-05-04 03:43 | 20.15671 | -98.65804 | 22528 ft | 378 kts | 298° |
| 2026-05-04 03:43 | 20.16815 | -98.68323 | 22179 ft | 376 kts | 297° |
| 2026-05-04 03:43 | 20.17947 | -98.70805 | 21843 ft | 374 kts | 297° |
| 2026-05-04 03:43 | 20.19076 | -98.73288 | 21501 ft | 372 kts | 297° |
| 2026-05-04 03:44 | 20.20195 | -98.75753 | 21165 ft | 370 kts | 297° |
| 2026-05-04 03:44 | 20.21152 | -98.78300 | 20792 ft | 371 kts | 283° |
| 2026-05-04 03:44 | 20.21097 | -98.81039 | 20433 ft | 375 kts | 258° |
| 2026-05-04 03:44 | 20.19968 | -98.83540 | 20105 ft | 380 kts | 235° |
| 2026-05-04 03:45 | 20.18296 | -98.85757 | 19832 ft | 379 kts | 236° |
| 2026-05-04 03:45 | 20.16755 | -98.87989 | 19500 ft | 379 kts | 236° |
| 2026-05-04 03:45 | 20.15180 | -98.90251 | 19157 ft | 377 kts | 236° |
| 2026-05-04 03:45 | 20.13635 | -98.92473 | 18822 ft | 375 kts | 236° |
| 2026-05-04 03:46 | 20.12401 | -98.94859 | 18483 ft | 365 kts | 257° |
| 2026-05-04 03:46 | 20.12330 | -98.97504 | 18536 ft | 353 kts | 284° |
| 2026-05-04 03:46 | 20.13109 | -98.99949 | 18509 ft | 354 kts | 301° |
| 2026-05-04 03:46 | 20.14626 | -99.02070 | 18492 ft | 355 kts | 310° |
| 2026-05-04 03:47 | 20.16197 | -99.04142 | 18021 ft | 355 kts | 311° |
| 2026-05-04 03:47 | 20.17674 | -99.06114 | 18042 ft | 335 kts | 302° |
| 2026-05-04 03:47 | 20.18536 | -99.08372 | 18045 ft | 320 kts | 290° |
| 2026-05-04 03:47 | 20.19272 | -99.10589 | 18048 ft | 317 kts | 291° |
| 2026-05-04 03:48 | 20.19998 | -99.12819 | 18052 ft | 319 kts | 291° |
| 2026-05-04 03:48 | 20.20732 | -99.15070 | 18053 ft | 322 kts | 291° |
| 2026-05-04 03:48 | 20.21447 | -99.17358 | 18034 ft | 325 kts | 285° |
| 2026-05-04 03:48 | 20.21547 | -99.19791 | 18070 ft | 327 kts | 269° |
| 2026-05-04 03:49 | 20.21461 | -99.22232 | 18055 ft | 329 kts | 271° |
| 2026-05-04 03:49 | 20.21394 | -99.24661 | 18038 ft | 328 kts | 270° |
| 2026-05-04 03:49 | 20.21325 | -99.27091 | 18035 ft | 328 kts | 270° |
| 2026-05-04 03:49 | 20.21219 | -99.29502 | 18042 ft | 328 kts | 263° |
| 2026-05-04 03:50 | 20.20488 | -99.31811 | 18068 ft | 331 kts | 248° |
| 2026-05-04 03:50 | 20.19583 | -99.34071 | 18077 ft | 332 kts | 250° |
| 2026-05-04 03:50 | 20.18625 | -99.36324 | 18062 ft | 334 kts | 239° |
| 2026-05-04 03:50 | 20.16953 | -99.38052 | 17941 ft | 340 kts | 211° |
| 2026-05-04 03:51 | 20.14698 | -99.38766 | 17725 ft | 343 kts | 183° |
| 2026-05-04 03:51 | 20.12374 | -99.38303 | 17536 ft | 342 kts | 155° |
| 2026-05-04 03:51 | 20.10437 | -99.36872 | 17361 ft | 340 kts | 140° |
| 2026-05-04 03:51 | 20.08524 | -99.35370 | 17144 ft | 341 kts | 146° |
| 2026-05-04 03:52 | 20.06531 | -99.33980 | 16908 ft | 340 kts | 146° |
| 2026-05-04 03:52 | 20.04525 | -99.32601 | 16547 ft | 338 kts | 147° |
| 2026-05-04 03:52 | 20.02576 | -99.31267 | 16140 ft | 335 kts | 147° |
| 2026-05-04 03:52 | 20.00613 | -99.29923 | 15723 ft | 330 kts | 147° |
| 2026-05-04 03:53 | 19.98700 | -99.28614 | 15297 ft | 325 kts | 147° |
| 2026-05-04 03:53 | 19.96797 | -99.27312 | 14885 ft | 321 kts | 147° |
| 2026-05-04 03:53 | 19.94913 | -99.26024 | 14459 ft | 317 kts | 147° |
| 2026-05-04 03:53 | 19.93083 | -99.24771 | 14043 ft | 313 kts | 147° |
| 2026-05-04 03:54 | 19.91238 | -99.23512 | 13632 ft | 310 kts | 147° |
| 2026-05-04 03:54 | 19.89281 | -99.22666 | 13169 ft | 305 kts | 173° |
| 2026-05-04 03:54 | 19.87173 | -99.22469 | 12829 ft | 299 kts | 175° |
| 2026-05-04 03:54 | 19.85110 | -99.22234 | 12428 ft | 297 kts | 175° |
| 2026-05-04 03:55 | 19.83037 | -99.22017 | 12007 ft | 295 kts | 175° |
| 2026-05-04 03:55 | 19.81009 | -99.21800 | 11593 ft | 292 kts | 175° |
| 2026-05-04 03:55 | 19.78986 | -99.21585 | 11184 ft | 289 kts | 175° |
| 2026-05-04 03:55 | 19.77034 | -99.21377 | 11056 ft | 273 kts | 175° |
| 2026-05-04 03:56 | 19.75195 | -99.21178 | 10991 ft | 256 kts | 175° |
| 2026-05-04 03:56 | 19.73460 | -99.20993 | 10980 ft | 248 kts | 175° |
| 2026-05-04 03:56 | 19.71701 | -99.20807 | 10884 ft | 252 kts | 175° |
| 2026-05-04 03:56 | 19.69983 | -99.20623 | 10724 ft | 241 kts | 175° |
| 2026-05-04 03:57 | 19.68345 | -99.20446 | 10565 ft | 230 kts | 175° |
| 2026-05-04 03:57 | 19.66857 | -99.19964 | 10363 ft | 224 kts | 143° |
| 2026-05-04 03:57 | 19.66001 | -99.18628 | 10284 ft | 221 kts | 110° |
| 2026-05-04 03:57 | 19.65514 | -99.17132 | 10159 ft | 210 kts | 111° |
| 2026-05-04 03:58 | 19.64944 | -99.14363 | 9932 ft | 188 kts | 81° |
| 2026-05-04 03:58 | 19.65204 | -99.13030 | 9827 ft | 180 kts | 81° |
| 2026-05-04 03:58 | 19.65437 | -99.11745 | 9654 ft | 175 kts | 80° |
| 2026-05-04 03:59 | 19.65977 | -99.10616 | 9366 ft | 174 kts | 49° |
| 2026-05-04 03:59 | 19.66790 | -99.09698 | 9154 ft | 169 kts | 49° |
| 2026-05-04 03:59 | 19.67566 | -99.08770 | 8863 ft | 166 kts | 49° |
| 2026-05-04 03:59 | 19.68327 | -99.07853 | 8560 ft | 163 kts | 50° |
| 2026-05-04 04:00 | 19.69059 | -99.06956 | 8499 ft | 158 kts | 50° |
| 2026-05-04 04:00 | 19.69796 | -99.06067 | 8309 ft | 162 kts | 49° |
| 2026-05-04 04:00 | 19.70536 | -99.05161 | 8125 ft | 163 kts | 50° |
| 2026-05-04 04:00 | 19.71286 | -99.04243 | 7898 ft | 166 kts | 49° |
| 2026-05-04 04:01 | 19.72059 | -99.03308 | 7664 ft | 169 kts | 50° |
| 2026-05-04 04:01 | 19.72797 | -99.02394 | 7415 ft | 155 kts | 51° |
| 2026-05-04 04:01 | 19.73452 | -99.01584 | 7374 ft | 122 kts | 49° |
| 2026-05-04 04:01 | 19.73827 | -99.01122 | 7377 ft | 61 kts | 49° |
| 2026-05-04 04:02 | 19.74069 | -99.00826 | 7377 ft | 34 kts | 50° |
| 2026-05-04 04:02 | 19.74202 | -99.00696 | 7376 ft | 23 kts | 34° |
| 2026-05-04 04:02 | 19.74323 | -99.00636 | 7373 ft | 0 kts | 13° |